sensor_id;sensor_type;location;lat;lon;timestamp;P1;durP1;ratioP1;P2;durP2;ratioP2
37091;SDS011;23005;51.998;4.502;2023-04-24T12:54:38;20.40;;;4.13;;
37091;SDS011;23005;51.998;4.502;2023-04-24T12:55:59;23.02;;;4.38;;
37091;SDS011;23005;51.998;4.502;2023-04-24T12:57:20;29.13;;;4.75;;
37091;SDS011;23005;51.998;4.502;2023-04-24T12:58:41;27.48;;;5.47;;
37091;SDS011;23005;51.998;4.502;2023-04-24T13:00:02;24.33;;;4.45;;
37091;SDS011;23005;51.998;4.502;2023-04-24T13:01:25;28.50;;;5.65;;
37091;SDS011;23005;51.998;4.502;2023-04-24T13:02:47;24.77;;;4.53;;
37091;SDS011;23005;51.998;4.502;2023-04-24T13:04:08;16.88;;;3.38;;
37091;SDS011;23005;51.998;4.502;2023-04-24T13:05:29;19.52;;;3.45;;
37091;SDS011;23005;51.998;4.502;2023-04-24T13:06:50;18.15;;;3.40;;
37091;SDS011;23005;51.998;4.502;2023-04-24T13:08:10;19.42;;;4.03;;
37091;SDS011;23005;51.998;4.502;2023-04-24T13:09:31;21.95;;;5.07;;
37091;SDS011;23005;51.998;4.502;2023-04-24T13:10:55;33.80;;;5.18;;
37091;SDS011;23005;51.998;4.502;2023-04-24T13:12:16;27.75;;;5.60;;
37091;SDS011;23005;51.998;4.502;2023-04-24T13:13:38;21.50;;;4.30;;
37091;SDS011;23005;51.998;4.502;2023-04-24T13:14:59;20.60;;;3.97;;
37091;SDS011;23005;51.998;4.502;2023-04-24T13:16:20;26.30;;;4.40;;
37091;SDS011;23005;51.998;4.502;2023-04-24T13:17:41;27.48;;;4.15;;
37091;SDS011;23005;51.998;4.502;2023-04-24T13:19:02;28.90;;;4.15;;
37091;SDS011;23005;51.998;4.502;2023-04-24T13:20:23;27.27;;;4.10;;
37091;SDS011;23005;51.998;4.502;2023-04-24T13:21:44;22.77;;;4.45;;
37091;SDS011;23005;51.998;4.502;2023-04-24T13:23:05;21.63;;;3.97;;
37091;SDS011;23005;51.998;4.502;2023-04-24T13:24:26;22.30;;;3.90;;
37091;SDS011;23005;51.998;4.502;2023-04-24T13:25:47;19.98;;;4.32;;
37091;SDS011;23005;51.998;4.502;2023-04-24T13:27:09;17.08;;;3.90;;
37091;SDS011;23005;51.998;4.502;2023-04-24T13:28:30;27.08;;;3.90;;
37091;SDS011;23005;51.998;4.502;2023-04-24T13:29:51;21.05;;;4.05;;
37091;SDS011;23005;51.998;4.502;2023-04-24T13:31:12;17.75;;;3.75;;
37091;SDS011;23005;51.998;4.502;2023-04-24T13:32:33;23.88;;;4.68;;
37091;SDS011;23005;51.998;4.502;2023-04-24T13:33:54;18.85;;;4.78;;
37091;SDS011;23005;51.998;4.502;2023-04-24T13:35:15;14.38;;;3.80;;
37091;SDS011;23005;51.998;4.502;2023-04-24T13:36:36;19.67;;;4.50;;
37091;SDS011;23005;51.998;4.502;2023-04-24T13:37:57;22.73;;;4.50;;
37091;SDS011;23005;51.998;4.502;2023-04-24T13:39:18;19.88;;;4.38;;
37091;SDS011;23005;51.998;4.502;2023-04-24T13:40:39;18.50;;;3.15;;
37091;SDS011;23005;51.998;4.502;2023-04-24T13:42:00;25.90;;;4.65;;
37091;SDS011;23005;51.998;4.502;2023-04-24T13:43:25;20.42;;;4.85;;
37091;SDS011;23005;51.998;4.502;2023-04-24T13:44:46;16.23;;;3.67;;
37091;SDS011;23005;51.998;4.502;2023-04-24T13:46:07;20.30;;;4.32;;
37091;SDS011;23005;51.998;4.502;2023-04-24T13:47:28;23.27;;;4.15;;
37091;SDS011;23005;51.998;4.502;2023-04-24T13:48:49;15.45;;;3.45;;
37091;SDS011;23005;51.998;4.502;2023-04-24T13:50:11;15.05;;;4.15;;
37091;SDS011;23005;51.998;4.502;2023-04-24T13:51:32;17.52;;;3.72;;
37091;SDS011;23005;51.998;4.502;2023-04-24T13:52:53;13.57;;;3.65;;
37091;SDS011;23005;51.998;4.502;2023-04-24T13:54:14;16.10;;;3.95;;
37091;SDS011;23005;51.998;4.502;2023-04-24T13:55:35;18.42;;;3.95;;
37091;SDS011;23005;51.998;4.502;2023-04-24T13:56:57;15.95;;;3.63;;
37091;SDS011;23005;51.998;4.502;2023-04-24T13:58:17;15.63;;;3.70;;
37091;SDS011;23005;51.998;4.502;2023-04-24T13:59:40;15.68;;;3.97;;
37091;SDS011;23005;51.998;4.502;2023-04-24T14:01:00;16.10;;;3.92;;
37091;SDS011;23005;51.998;4.502;2023-04-24T14:02:21;18.60;;;4.30;;
37091;SDS011;23005;51.998;4.502;2023-04-24T14:03:42;21.88;;;4.72;;
37091;SDS011;23005;51.998;4.502;2023-04-24T14:06:25;20.33;;;4.40;;
37091;SDS011;23005;51.998;4.502;2023-04-24T14:07:46;21.88;;;4.93;;
37091;SDS011;23005;51.998;4.502;2023-04-24T14:09:07;20.30;;;4.55;;
37091;SDS011;23005;51.998;4.502;2023-04-24T14:10:28;21.75;;;5.60;;
37091;SDS011;23005;51.998;4.502;2023-04-24T14:11:49;25.05;;;5.43;;
37091;SDS011;23005;51.998;4.502;2023-04-24T14:13:12;22.08;;;5.30;;
37091;SDS011;23005;51.998;4.502;2023-04-24T14:14:33;25.50;;;4.82;;
37091;SDS011;23005;51.998;4.502;2023-04-24T14:15:55;21.70;;;5.13;;
37091;SDS011;23005;51.998;4.502;2023-04-24T14:17:17;23.60;;;5.32;;
37091;SDS011;23005;51.998;4.502;2023-04-24T14:18:38;24.05;;;5.43;;
37091;SDS011;23005;51.998;4.502;2023-04-24T14:19:59;25.17;;;5.82;;
37091;SDS011;23005;51.998;4.502;2023-04-24T14:21:40;26.55;;;5.93;;
37091;SDS011;23005;51.998;4.502;2023-04-24T14:23:01;23.48;;;4.90;;
37091;SDS011;23005;51.998;4.502;2023-04-24T14:24:22;19.10;;;5.03;;
37091;SDS011;23005;51.998;4.502;2023-04-24T14:25:42;20.45;;;5.55;;
37091;SDS011;23005;51.998;4.502;2023-04-24T14:27:03;23.13;;;5.35;;
37091;SDS011;23005;51.998;4.502;2023-04-24T14:28:24;26.65;;;5.00;;
37091;SDS011;23005;51.998;4.502;2023-04-24T14:31:07;20.13;;;4.78;;
37091;SDS011;23005;51.998;4.502;2023-04-24T14:32:29;26.27;;;5.10;;
37091;SDS011;23005;51.998;4.502;2023-04-24T14:33:50;22.48;;;4.85;;
37091;SDS011;23005;51.998;4.502;2023-04-24T14:35:10;27.20;;;4.73;;
37091;SDS011;23005;51.998;4.502;2023-04-24T14:36:31;33.78;;;5.18;;
37091;SDS011;23005;51.998;4.502;2023-04-24T14:37:52;26.17;;;5.10;;
37091;SDS011;23005;51.998;4.502;2023-04-24T14:39:13;31.17;;;5.90;;
37091;SDS011;23005;51.998;4.502;2023-04-24T14:40:34;24.60;;;5.80;;
37091;SDS011;23005;51.998;4.502;2023-04-24T14:42:15;23.20;;;5.53;;
37091;SDS011;23005;51.998;4.502;2023-04-24T14:43:36;23.15;;;5.45;;
37091;SDS011;23005;51.998;4.502;2023-04-24T14:44:57;26.23;;;5.55;;
37091;SDS011;23005;51.998;4.502;2023-04-24T14:46:19;20.48;;;5.10;;
37091;SDS011;23005;51.998;4.502;2023-04-24T14:47:40;23.08;;;5.55;;
37091;SDS011;23005;51.998;4.502;2023-04-24T14:49:01;29.60;;;6.20;;
37091;SDS011;23005;51.998;4.502;2023-04-24T14:50:22;24.58;;;5.30;;
37091;SDS011;23005;51.998;4.502;2023-04-24T14:51:44;29.60;;;6.70;;
37091;SDS011;23005;51.998;4.502;2023-04-24T14:53:04;30.45;;;5.88;;
37091;SDS011;23005;51.998;4.502;2023-04-24T14:54:25;31.40;;;6.38;;
37091;SDS011;23005;51.998;4.502;2023-04-24T14:55:46;26.48;;;5.53;;
37091;SDS011;23005;51.998;4.502;2023-04-24T14:57:07;26.33;;;5.93;;
37091;SDS011;23005;51.998;4.502;2023-04-24T14:58:28;30.63;;;5.78;;
37091;SDS011;23005;51.998;4.502;2023-04-24T14:59:49;21.75;;;5.00;;
37091;SDS011;23005;51.998;4.502;2023-04-24T15:01:10;27.83;;;5.20;;
37091;SDS011;23005;51.998;4.502;2023-04-24T15:02:33;19.48;;;5.18;;
37091;SDS011;23005;51.998;4.502;2023-04-24T15:03:54;15.25;;;4.25;;
37091;SDS011;23005;51.998;4.502;2023-04-24T15:05:15;21.33;;;3.70;;
37091;SDS011;23005;51.998;4.502;2023-04-24T15:06:38;20.92;;;4.30;;
37091;SDS011;23005;51.998;4.502;2023-04-24T15:07:58;25.00;;;4.67;;
37091;SDS011;23005;51.998;4.502;2023-04-24T15:09:19;21.02;;;4.70;;
37091;SDS011;23005;51.998;4.502;2023-04-24T15:10:41;20.58;;;4.43;;
37091;SDS011;23005;51.998;4.502;2023-04-24T15:12:02;29.83;;;5.53;;
37091;SDS011;23005;51.998;4.502;2023-04-24T15:13:22;21.90;;;4.70;;
37091;SDS011;23005;51.998;4.502;2023-04-24T15:14:43;30.48;;;5.05;;
37091;SDS011;23005;51.998;4.502;2023-04-24T15:16:04;18.67;;;4.65;;
37091;SDS011;23005;51.998;4.502;2023-04-24T15:17:26;24.08;;;5.15;;
37091;SDS011;23005;51.998;4.502;2023-04-24T15:18:48;27.48;;;5.57;;
37091;SDS011;23005;51.998;4.502;2023-04-24T15:20:09;29.75;;;5.78;;
37091;SDS011;23005;51.998;4.502;2023-04-24T15:21:30;30.25;;;6.63;;
37091;SDS011;23005;51.998;4.502;2023-04-24T15:22:51;27.42;;;5.55;;
37091;SDS011;23005;51.998;4.502;2023-04-24T15:24:12;27.02;;;5.60;;
37091;SDS011;23005;51.998;4.502;2023-04-24T15:25:33;29.58;;;6.68;;
37091;SDS011;23005;51.998;4.502;2023-04-24T15:26:54;30.65;;;5.95;;
37091;SDS011;23005;51.998;4.502;2023-04-24T15:28:17;28.95;;;7.13;;
37091;SDS011;23005;51.998;4.502;2023-04-24T15:29:38;34.65;;;6.30;;
37091;SDS011;23005;51.998;4.502;2023-04-24T15:30:59;30.77;;;6.85;;
37091;SDS011;23005;51.998;4.502;2023-04-24T15:32:20;29.98;;;5.80;;
37091;SDS011;23005;51.998;4.502;2023-04-24T15:33:41;32.30;;;7.28;;
37091;SDS011;23005;51.998;4.502;2023-04-24T15:35:04;27.42;;;6.03;;
37091;SDS011;23005;51.998;4.502;2023-04-24T15:36:29;32.00;;;6.30;;
37091;SDS011;23005;51.998;4.502;2023-04-24T15:37:50;33.47;;;6.82;;
37091;SDS011;23005;51.998;4.502;2023-04-24T15:39:11;33.63;;;5.88;;
37091;SDS011;23005;51.998;4.502;2023-04-24T15:40:32;32.92;;;7.03;;
37091;SDS011;23005;51.998;4.502;2023-04-24T15:41:53;27.85;;;5.75;;
37091;SDS011;23005;51.998;4.502;2023-04-24T15:43:14;30.67;;;6.18;;
37091;SDS011;23005;51.998;4.502;2023-04-24T15:44:35;26.50;;;5.35;;
37091;SDS011;23005;51.998;4.502;2023-04-24T15:45:57;22.88;;;5.00;;
37091;SDS011;23005;51.998;4.502;2023-04-24T15:47:18;25.75;;;5.13;;
37091;SDS011;23005;51.998;4.502;2023-04-24T15:48:41;27.25;;;5.50;;
37091;SDS011;23005;51.998;4.502;2023-04-24T15:50:04;24.23;;;5.45;;
37091;SDS011;23005;51.998;4.502;2023-04-24T15:51:26;23.42;;;5.75;;
37091;SDS011;23005;51.998;4.502;2023-04-24T15:52:47;23.08;;;4.95;;
37091;SDS011;23005;51.998;4.502;2023-04-24T15:54:08;32.75;;;5.50;;
37091;SDS011;23005;51.998;4.502;2023-04-24T15:55:29;24.10;;;5.55;;
37091;SDS011;23005;51.998;4.502;2023-04-24T15:56:50;20.10;;;5.03;;
37091;SDS011;23005;51.998;4.502;2023-04-24T15:58:11;20.63;;;5.05;;
37091;SDS011;23005;51.998;4.502;2023-04-24T15:59:32;11.43;;;3.95;;
37091;SDS011;23005;51.998;4.502;2023-04-24T16:00:53;18.00;;;4.00;;
37091;SDS011;23005;51.998;4.502;2023-04-24T16:02:14;20.92;;;4.72;;
37091;SDS011;23005;51.998;4.502;2023-04-24T16:03:35;18.30;;;4.88;;
37091;SDS011;23005;51.998;4.502;2023-04-24T16:04:56;22.08;;;5.18;;
37091;SDS011;23005;51.998;4.502;2023-04-24T16:06:19;20.13;;;5.15;;
37091;SDS011;23005;51.998;4.502;2023-04-24T16:07:40;17.80;;;4.68;;
37091;SDS011;23005;51.998;4.502;2023-04-24T16:09:01;20.08;;;5.15;;
37091;SDS011;23005;51.998;4.502;2023-04-24T16:10:22;19.02;;;4.03;;
37091;SDS011;23005;51.998;4.502;2023-04-24T16:11:46;17.10;;;5.10;;
37091;SDS011;23005;51.998;4.502;2023-04-24T16:13:07;22.30;;;4.68;;
37091;SDS011;23005;51.998;4.502;2023-04-24T16:14:28;20.27;;;4.53;;
37091;SDS011;23005;51.998;4.502;2023-04-24T16:15:49;23.30;;;4.63;;
37091;SDS011;23005;51.998;4.502;2023-04-24T16:17:10;22.73;;;5.10;;
37091;SDS011;23005;51.998;4.502;2023-04-24T16:18:31;20.30;;;5.00;;
37091;SDS011;23005;51.998;4.502;2023-04-24T16:19:52;23.73;;;4.38;;
37091;SDS011;23005;51.998;4.502;2023-04-24T16:21:13;22.33;;;5.03;;
37091;SDS011;23005;51.998;4.502;2023-04-24T16:22:35;26.52;;;5.05;;
37091;SDS011;23005;51.998;4.502;2023-04-24T16:23:58;26.15;;;5.50;;
37091;SDS011;23005;51.998;4.502;2023-04-24T16:25:19;21.05;;;4.60;;
37091;SDS011;23005;51.998;4.502;2023-04-24T16:28:01;19.57;;;4.53;;
37091;SDS011;23005;51.998;4.502;2023-04-24T16:29:22;26.65;;;5.63;;
37091;SDS011;23005;51.998;4.502;2023-04-24T16:30:43;21.55;;;4.70;;
37091;SDS011;23005;51.998;4.502;2023-04-24T16:32:04;19.88;;;4.88;;
37091;SDS011;23005;51.998;4.502;2023-04-24T16:33:25;20.13;;;4.53;;
37091;SDS011;23005;51.998;4.502;2023-04-24T16:34:46;23.98;;;5.00;;
37091;SDS011;23005;51.998;4.502;2023-04-24T16:36:07;25.67;;;5.00;;
37091;SDS011;23005;51.998;4.502;2023-04-24T16:37:30;19.52;;;4.70;;
37091;SDS011;23005;51.998;4.502;2023-04-24T16:38:52;26.15;;;6.07;;
37091;SDS011;23005;51.998;4.502;2023-04-24T16:40:13;26.35;;;5.30;;
37091;SDS011;23005;51.998;4.502;2023-04-24T16:41:34;31.42;;;6.03;;
37091;SDS011;23005;51.998;4.502;2023-04-24T16:42:55;25.08;;;6.40;;
37091;SDS011;23005;51.998;4.502;2023-04-24T16:44:16;28.98;;;6.20;;
37091;SDS011;23005;51.998;4.502;2023-04-24T16:45:37;32.95;;;6.03;;
37091;SDS011;23005;51.998;4.502;2023-04-24T16:46:58;27.25;;;6.43;;
37091;SDS011;23005;51.998;4.502;2023-04-24T16:48:19;25.35;;;6.03;;
37091;SDS011;23005;51.998;4.502;2023-04-24T16:49:40;26.35;;;5.55;;
37091;SDS011;23005;51.998;4.502;2023-04-24T16:51:01;24.30;;;6.05;;
37091;SDS011;23005;51.998;4.502;2023-04-24T16:52:22;28.08;;;6.22;;
37091;SDS011;23005;51.998;4.502;2023-04-24T16:53:42;28.55;;;5.53;;
37091;SDS011;23005;51.998;4.502;2023-04-24T16:55:05;29.48;;;7.50;;
37091;SDS011;23005;51.998;4.502;2023-04-24T16:56:27;31.50;;;6.15;;
37091;SDS011;23005;51.998;4.502;2023-04-24T16:57:48;31.88;;;7.00;;
37091;SDS011;23005;51.998;4.502;2023-04-24T16:59:09;35.83;;;5.60;;
37091;SDS011;23005;51.998;4.502;2023-04-24T17:00:30;35.08;;;6.00;;
37091;SDS011;23005;51.998;4.502;2023-04-24T17:01:51;37.25;;;6.22;;
37091;SDS011;23005;51.998;4.502;2023-04-24T17:03:12;27.98;;;5.55;;
37091;SDS011;23005;51.998;4.502;2023-04-24T17:04:33;29.75;;;5.80;;
37091;SDS011;23005;51.998;4.502;2023-04-24T17:05:53;34.45;;;6.88;;
37091;SDS011;23005;51.998;4.502;2023-04-24T17:07:14;28.13;;;6.18;;
37091;SDS011;23005;51.998;4.502;2023-04-24T17:08:35;25.80;;;6.45;;
37091;SDS011;23005;51.998;4.502;2023-04-24T17:09:56;30.02;;;6.28;;
37091;SDS011;23005;51.998;4.502;2023-04-24T17:11:19;32.28;;;5.95;;
37091;SDS011;23005;51.998;4.502;2023-04-24T17:12:40;27.17;;;5.60;;
37091;SDS011;23005;51.998;4.502;2023-04-24T17:14:01;27.95;;;6.15;;
37091;SDS011;23005;51.998;4.502;2023-04-24T17:15:22;29.20;;;5.40;;
37091;SDS011;23005;51.998;4.502;2023-04-24T17:18:04;25.38;;;5.25;;
37091;SDS011;23005;51.998;4.502;2023-04-24T17:19:25;22.65;;;4.80;;
37091;SDS011;23005;51.998;4.502;2023-04-24T17:20:46;39.70;;;7.18;;
37091;SDS011;23005;51.998;4.502;2023-04-24T17:23:28;29.70;;;5.53;;
37091;SDS011;23005;51.998;4.502;2023-04-24T17:24:49;26.10;;;5.07;;
37091;SDS011;23005;51.998;4.502;2023-04-24T17:26:10;23.05;;;4.93;;
37091;SDS011;23005;51.998;4.502;2023-04-24T17:27:32;31.30;;;5.63;;
37091;SDS011;23005;51.998;4.502;2023-04-24T17:28:54;23.38;;;5.75;;
37091;SDS011;23005;51.998;4.502;2023-04-24T17:30:15;37.42;;;6.40;;
37091;SDS011;23005;51.998;4.502;2023-04-24T17:31:36;38.25;;;7.05;;
37091;SDS011;23005;51.998;4.502;2023-04-24T17:32:56;24.25;;;5.22;;
37091;SDS011;23005;51.998;4.502;2023-04-24T17:34:17;27.92;;;4.95;;
37091;SDS011;23005;51.998;4.502;2023-04-24T17:35:38;36.08;;;4.93;;
37091;SDS011;23005;51.998;4.502;2023-04-24T17:36:59;28.45;;;4.95;;
37091;SDS011;23005;51.998;4.502;2023-04-24T17:38:20;33.53;;;6.43;;
37091;SDS011;23005;51.998;4.502;2023-04-24T17:39:41;28.25;;;5.07;;
37091;SDS011;23005;51.998;4.502;2023-04-24T17:41:02;33.95;;;6.13;;
37091;SDS011;23005;51.998;4.502;2023-04-24T17:43:46;24.63;;;5.03;;
37091;SDS011;23005;51.998;4.502;2023-04-24T17:45:07;30.70;;;5.32;;
37091;SDS011;23005;51.998;4.502;2023-04-24T17:46:29;29.10;;;4.72;;
37091;SDS011;23005;51.998;4.502;2023-04-24T17:47:50;22.90;;;4.90;;
37091;SDS011;23005;51.998;4.502;2023-04-24T17:49:11;28.63;;;4.88;;
37091;SDS011;23005;51.998;4.502;2023-04-24T17:50:32;29.10;;;4.47;;
37091;SDS011;23005;51.998;4.502;2023-04-24T17:51:53;18.75;;;4.38;;
37091;SDS011;23005;51.998;4.502;2023-04-24T17:53:15;23.52;;;4.65;;
37091;SDS011;23005;51.998;4.502;2023-04-24T17:54:36;19.67;;;4.35;;
37091;SDS011;23005;51.998;4.502;2023-04-24T17:55:57;23.85;;;5.30;;
37091;SDS011;23005;51.998;4.502;2023-04-24T17:57:18;26.50;;;4.90;;
37091;SDS011;23005;51.998;4.502;2023-04-24T17:58:39;27.73;;;4.25;;
37091;SDS011;23005;51.998;4.502;2023-04-24T18:00:01;31.40;;;3.97;;
37091;SDS011;23005;51.998;4.502;2023-04-24T18:01:22;20.15;;;4.25;;
37091;SDS011;23005;51.998;4.502;2023-04-24T18:02:43;25.52;;;4.35;;
37091;SDS011;23005;51.998;4.502;2023-04-24T18:04:04;25.20;;;4.57;;
37091;SDS011;23005;51.998;4.502;2023-04-24T18:05:25;25.38;;;5.00;;
37091;SDS011;23005;51.998;4.502;2023-04-24T18:06:46;27.52;;;4.10;;
37091;SDS011;23005;51.998;4.502;2023-04-24T18:08:07;21.73;;;4.72;;
37091;SDS011;23005;51.998;4.502;2023-04-24T18:09:28;31.17;;;5.00;;
37091;SDS011;23005;51.998;4.502;2023-04-24T18:10:49;24.85;;;5.40;;
37091;SDS011;23005;51.998;4.502;2023-04-24T18:12:10;31.50;;;5.25;;
37091;SDS011;23005;51.998;4.502;2023-04-24T18:13:32;28.70;;;5.10;;
37091;SDS011;23005;51.998;4.502;2023-04-24T18:14:53;19.83;;;4.18;;
37091;SDS011;23005;51.998;4.502;2023-04-24T18:16:33;25.75;;;4.40;;
37091;SDS011;23005;51.998;4.502;2023-04-24T18:17:54;24.27;;;4.70;;
37091;SDS011;23005;51.998;4.502;2023-04-24T18:19:15;29.33;;;5.18;;
37091;SDS011;23005;51.998;4.502;2023-04-24T18:20:36;27.38;;;4.65;;
37091;SDS011;23005;51.998;4.502;2023-04-24T18:21:57;29.15;;;4.93;;
37091;SDS011;23005;51.998;4.502;2023-04-24T18:23:18;22.70;;;4.47;;
37091;SDS011;23005;51.998;4.502;2023-04-24T18:24:39;28.90;;;4.85;;
37091;SDS011;23005;51.998;4.502;2023-04-24T18:26:00;25.20;;;4.60;;
37091;SDS011;23005;51.998;4.502;2023-04-24T18:27:21;25.02;;;4.60;;
37091;SDS011;23005;51.998;4.502;2023-04-24T18:28:42;28.90;;;5.70;;
37091;SDS011;23005;51.998;4.502;2023-04-24T18:30:03;23.52;;;4.57;;
37091;SDS011;23005;51.998;4.502;2023-04-24T18:31:26;22.00;;;4.15;;
37091;SDS011;23005;51.998;4.502;2023-04-24T18:32:49;18.23;;;4.32;;
37091;SDS011;23005;51.998;4.502;2023-04-24T18:34:11;22.50;;;4.38;;
37091;SDS011;23005;51.998;4.502;2023-04-24T18:35:32;23.45;;;4.35;;
37091;SDS011;23005;51.998;4.502;2023-04-24T18:36:53;26.20;;;4.35;;
37091;SDS011;23005;51.998;4.502;2023-04-24T18:38:14;15.55;;;3.90;;
37091;SDS011;23005;51.998;4.502;2023-04-24T18:39:35;22.45;;;3.97;;
37091;SDS011;23005;51.998;4.502;2023-04-24T18:40:55;20.93;;;3.67;;
37091;SDS011;23005;51.998;4.502;2023-04-24T18:42:16;19.85;;;3.65;;
37091;SDS011;23005;51.998;4.502;2023-04-24T18:43:37;24.30;;;4.28;;
37091;SDS011;23005;51.998;4.502;2023-04-24T18:44:58;19.55;;;4.75;;
37091;SDS011;23005;51.998;4.502;2023-04-24T18:46:19;12.77;;;3.72;;
37091;SDS011;23005;51.998;4.502;2023-04-24T18:47:40;20.10;;;4.40;;
37091;SDS011;23005;51.998;4.502;2023-04-24T18:49:03;18.40;;;3.08;;
37091;SDS011;23005;51.998;4.502;2023-04-24T18:50:24;13.50;;;2.78;;
37091;SDS011;23005;51.998;4.502;2023-04-24T18:51:47;10.68;;;2.95;;
37091;SDS011;23005;51.998;4.502;2023-04-24T18:53:13;13.77;;;2.67;;
37091;SDS011;23005;51.998;4.502;2023-04-24T18:54:34;15.20;;;3.33;;
37091;SDS011;23005;51.998;4.502;2023-04-24T18:55:55;11.38;;;2.40;;
37091;SDS011;23005;51.998;4.502;2023-04-24T18:57:16;15.93;;;2.90;;
37091;SDS011;23005;51.998;4.502;2023-04-24T18:58:36;21.15;;;3.17;;
37091;SDS011;23005;51.998;4.502;2023-04-24T18:59:57;14.27;;;2.55;;
37091;SDS011;23005;51.998;4.502;2023-04-24T19:01:18;14.50;;;3.15;;
37091;SDS011;23005;51.998;4.502;2023-04-24T19:02:39;12.30;;;2.60;;
37091;SDS011;23005;51.998;4.502;2023-04-24T19:04:02;17.13;;;2.67;;
37091;SDS011;23005;51.998;4.502;2023-04-24T19:05:23;13.00;;;2.60;;
37091;SDS011;23005;51.998;4.502;2023-04-24T19:06:44;11.90;;;2.58;;
37091;SDS011;23005;51.998;4.502;2023-04-24T19:08:05;18.35;;;2.88;;
37091;SDS011;23005;51.998;4.502;2023-04-24T19:09:26;14.80;;;3.03;;
37091;SDS011;23005;51.998;4.502;2023-04-24T19:10:47;12.30;;;2.75;;
37091;SDS011;23005;51.998;4.502;2023-04-24T19:12:08;15.65;;;2.50;;
37091;SDS011;23005;51.998;4.502;2023-04-24T19:13:29;14.63;;;3.20;;
37091;SDS011;23005;51.998;4.502;2023-04-24T19:14:50;12.50;;;2.83;;
37091;SDS011;23005;51.998;4.502;2023-04-24T19:16:11;12.60;;;2.78;;
37091;SDS011;23005;51.998;4.502;2023-04-24T19:17:32;19.75;;;3.65;;
37091;SDS011;23005;51.998;4.502;2023-04-24T19:18:53;10.80;;;2.70;;
37091;SDS011;23005;51.998;4.502;2023-04-24T19:20:15;16.52;;;3.17;;
37091;SDS011;23005;51.998;4.502;2023-04-24T19:21:36;14.43;;;3.42;;
37091;SDS011;23005;51.998;4.502;2023-04-24T19:22:57;16.85;;;3.33;;
37091;SDS011;23005;51.998;4.502;2023-04-24T19:24:18;10.68;;;3.00;;
37091;SDS011;23005;51.998;4.502;2023-04-24T19:25:39;18.27;;;3.45;;
37091;SDS011;23005;51.998;4.502;2023-04-24T19:28:22;20.23;;;3.58;;
37091;SDS011;23005;51.998;4.502;2023-04-24T19:29:43;13.32;;;3.47;;
37091;SDS011;23005;51.998;4.502;2023-04-24T19:31:04;13.43;;;3.45;;
37091;SDS011;23005;51.998;4.502;2023-04-24T19:32:24;15.15;;;2.97;;
37091;SDS011;23005;51.998;4.502;2023-04-24T19:33:46;17.42;;;3.67;;
37091;SDS011;23005;51.998;4.502;2023-04-24T19:35:07;15.93;;;3.83;;
37091;SDS011;23005;51.998;4.502;2023-04-24T19:36:30;30.15;;;4.60;;
37091;SDS011;23005;51.998;4.502;2023-04-24T19:37:51;19.90;;;4.30;;
37091;SDS011;23005;51.998;4.502;2023-04-24T19:39:12;17.98;;;3.42;;
37091;SDS011;23005;51.998;4.502;2023-04-24T19:40:33;18.10;;;3.30;;
37091;SDS011;23005;51.998;4.502;2023-04-24T19:41:54;17.23;;;3.35;;
37091;SDS011;23005;51.998;4.502;2023-04-24T19:43:15;19.33;;;4.50;;
37091;SDS011;23005;51.998;4.502;2023-04-24T19:44:35;19.90;;;4.13;;
37091;SDS011;23005;51.998;4.502;2023-04-24T19:45:56;21.05;;;4.03;;
37091;SDS011;23005;51.998;4.502;2023-04-24T19:47:17;23.40;;;3.88;;
37091;SDS011;23005;51.998;4.502;2023-04-24T19:48:38;24.63;;;4.50;;
37091;SDS011;23005;51.998;4.502;2023-04-24T19:49:59;26.38;;;4.32;;
37091;SDS011;23005;51.998;4.502;2023-04-24T19:51:20;32.22;;;4.68;;
37091;SDS011;23005;51.998;4.502;2023-04-24T19:54:06;20.80;;;4.72;;
37091;SDS011;23005;51.998;4.502;2023-04-24T19:55:27;23.75;;;3.58;;
37091;SDS011;23005;51.998;4.502;2023-04-24T19:56:48;36.00;;;5.15;;
37091;SDS011;23005;51.998;4.502;2023-04-24T19:58:09;30.52;;;5.20;;
37091;SDS011;23005;51.998;4.502;2023-04-24T19:59:30;22.75;;;3.88;;
37091;SDS011;23005;51.998;4.502;2023-04-24T20:00:53;22.40;;;3.78;;
37091;SDS011;23005;51.998;4.502;2023-04-24T20:02:13;16.15;;;3.70;;
37091;SDS011;23005;51.998;4.502;2023-04-24T20:03:34;23.75;;;3.95;;
37091;SDS011;23005;51.998;4.502;2023-04-24T20:04:56;24.98;;;3.97;;
37091;SDS011;23005;51.998;4.502;2023-04-24T20:06:17;26.17;;;4.07;;
37091;SDS011;23005;51.998;4.502;2023-04-24T20:07:38;20.50;;;4.32;;
37091;SDS011;23005;51.998;4.502;2023-04-24T20:09:00;21.48;;;3.80;;
37091;SDS011;23005;51.998;4.502;2023-04-24T20:10:23;23.00;;;3.83;;
37091;SDS011;23005;51.998;4.502;2023-04-24T20:11:44;24.45;;;4.13;;
37091;SDS011;23005;51.998;4.502;2023-04-24T20:13:05;20.13;;;3.40;;
37091;SDS011;23005;51.998;4.502;2023-04-24T20:14:26;22.17;;;4.45;;
37091;SDS011;23005;51.998;4.502;2023-04-24T20:15:47;19.25;;;4.22;;
37091;SDS011;23005;51.998;4.502;2023-04-24T20:17:12;27.73;;;5.15;;
37091;SDS011;23005;51.998;4.502;2023-04-24T20:18:33;21.38;;;4.65;;
37091;SDS011;23005;51.998;4.502;2023-04-24T20:19:54;23.85;;;5.03;;
37091;SDS011;23005;51.998;4.502;2023-04-24T20:22:36;25.50;;;4.57;;
37091;SDS011;23005;51.998;4.502;2023-04-24T20:23:57;21.48;;;3.80;;
37091;SDS011;23005;51.998;4.502;2023-04-24T20:25:19;21.70;;;3.55;;
37091;SDS011;23005;51.998;4.502;2023-04-24T20:26:40;17.90;;;4.35;;
37091;SDS011;23005;51.998;4.502;2023-04-24T20:28:01;17.48;;;3.13;;
37091;SDS011;23005;51.998;4.502;2023-04-24T20:29:22;25.42;;;4.60;;
37091;SDS011;23005;51.998;4.502;2023-04-24T20:30:43;22.88;;;3.95;;
37091;SDS011;23005;51.998;4.502;2023-04-24T20:32:10;23.48;;;3.65;;
37091;SDS011;23005;51.998;4.502;2023-04-24T20:33:33;20.45;;;3.40;;
37091;SDS011;23005;51.998;4.502;2023-04-24T20:34:55;24.92;;;4.22;;
37091;SDS011;23005;51.998;4.502;2023-04-24T20:36:16;23.65;;;3.78;;
37091;SDS011;23005;51.998;4.502;2023-04-24T20:37:37;26.70;;;4.13;;
37091;SDS011;23005;51.998;4.502;2023-04-24T20:38:58;25.15;;;3.45;;
37091;SDS011;23005;51.998;4.502;2023-04-24T20:40:20;21.38;;;3.20;;
37091;SDS011;23005;51.998;4.502;2023-04-24T20:41:41;21.77;;;4.07;;
37091;SDS011;23005;51.998;4.502;2023-04-24T20:43:03;30.45;;;5.30;;
37091;SDS011;23005;51.998;4.502;2023-04-24T20:44:24;22.92;;;4.07;;
37091;SDS011;23005;51.998;4.502;2023-04-24T20:45:45;20.75;;;3.90;;
37091;SDS011;23005;51.998;4.502;2023-04-24T20:47:06;22.92;;;4.13;;
37091;SDS011;23005;51.998;4.502;2023-04-24T20:48:27;19.95;;;3.92;;
37091;SDS011;23005;51.998;4.502;2023-04-24T20:49:48;25.55;;;4.47;;
37091;SDS011;23005;51.998;4.502;2023-04-24T20:51:09;17.02;;;4.18;;
37091;SDS011;23005;51.998;4.502;2023-04-24T20:52:30;24.00;;;4.50;;
37091;SDS011;23005;51.998;4.502;2023-04-24T20:53:51;21.63;;;4.60;;
37091;SDS011;23005;51.998;4.502;2023-04-24T20:55:12;22.02;;;4.57;;
37091;SDS011;23005;51.998;4.502;2023-04-24T20:56:35;31.63;;;5.63;;
37091;SDS011;23005;51.998;4.502;2023-04-24T20:57:56;23.45;;;4.55;;
37091;SDS011;23005;51.998;4.502;2023-04-24T20:59:17;26.67;;;5.35;;
37091;SDS011;23005;51.998;4.502;2023-04-24T21:00:38;14.30;;;3.70;;
37091;SDS011;23005;51.998;4.502;2023-04-24T21:01:59;18.52;;;4.63;;
37091;SDS011;23005;51.998;4.502;2023-04-24T21:03:20;29.80;;;4.20;;
37091;SDS011;23005;51.998;4.502;2023-04-24T21:04:41;24.58;;;4.85;;
37091;SDS011;23005;51.998;4.502;2023-04-24T21:06:02;23.13;;;4.30;;
37091;SDS011;23005;51.998;4.502;2023-04-24T21:07:23;27.40;;;5.40;;
37091;SDS011;23005;51.998;4.502;2023-04-24T21:08:44;33.83;;;5.80;;